• Join FlightAware (Why Join?)
  • Login
  • US Flag 
05:11AM EDT


 

Airport Tracker/Info


-or-


 

Live Flight TrackerFlight Track Log ✈ VH-SCC ✈ 14-Aug-2013 ✈ YPAD / ADL - YSBK / BWU

Flight Track Log - Related Links

Times and Time Zones

All times are in EDT time to prevent confusion due to time zone crossing. See the VH-SCC flight status page for this flight to view local times or setup timezone preferences in your user account.

Time Position Orientation Groundspeed Altitude Reporting Facility
EDT Latitude Longitude Course Direction KTS MPH feet Rate Location/Type
03:56AM -34.9617 138.5130 234° Southwest 140 161 2,100  Level Aus ATC (RADAR)
03:56AM -34.9860 138.4719 234° Southwest 180 207 5,100 3,960 Climbing Aus ATC (RADAR)
03:57AM -35.0029 138.4517 224° Southwest 170 196 7,400 4,080 Climbing Aus ATC (RADAR)
03:58AM -35.0282 138.4193 226° Southwest 177 204 10,200 3,540 Climbing Aus ATC (RADAR)
03:59AM -35.0711 138.4319 166° South 203 234 13,300 3,180 Climbing Aus ATC (RADAR)
04:00AM -35.1047 138.5135 117° Southeast 268 308 16,900 3,000 Climbing Aus ATC (RADAR)
04:01AM -35.0985 138.5997 85° East 281 323 19,600 2,460 Climbing Aus ATC (RADAR)
04:01AM -35.0956 138.6754 87° East 305 351 21,000 1,800 Climbing Aus ATC (RADAR)
04:02AM -35.0906 138.7402 85° East 330 380 22,000 1,740 Climbing Aus ATC (RADAR)
04:03AM -35.0816 138.8865 86° East 353 406 24,200 1,620 Climbing Aus ATC (RADAR)
04:04AM -35.0773 138.9497 85° East 372 428 24,900 2,400 Climbing Aus ATC (RADAR)
04:05AM -35.0665 139.1180 86° East 343 395 28,800 2,460 Climbing Aus ATC (RADAR)
04:06AM -35.0591 139.2210 85° East 336 387 30,600 1,680 Climbing Aus ATC (RADAR)
04:07AM -35.0531 139.3180 86° East 348 400 31,800 1,260 Climbing Aus ATC (RADAR)
04:08AM -35.0477 139.3888 85° East 361 415 32,400 900 Climbing Aus ATC (RADAR)
04:09AM -35.0382 139.5287 85° East 391 450 33,300 1,020 Climbing Aus ATC (RADAR)
04:09AM -35.0301 139.6420 85° East 404 465 34,400 1,380 Climbing Aus ATC (RADAR)
04:10AM -35.0236 139.7318 85° East 401 461 35,400 1,440 Climbing Aus ATC (RADAR)
04:11AM -35.0151 139.8516 85° East 386 444 36,700 1,020 Climbing Aus ATC (RADAR)
04:12AM -35.0066 139.9716 85° East 390 449 37,300 600 Climbing Aus ATC (RADAR)
04:12AM -35.0009 140.0383 84° East 395 455 37,600 600 Climbing Aus ATC (RADAR)
04:13AM -34.9929 140.1515 85° East 404 465 38,100 720 Climbing Aus ATC (RADAR)
04:15AM -34.9787 140.3334 85° East 404 465 39,200 480 Climbing Aus ATC (RADAR)
04:15AM -34.9776 140.4262 89° East 414 476 39,100 -120 Descending Aus ATC (RADAR)
04:16AM -34.9793 140.5708 91° East 430 495 39,100  Level Aus ATC (RADAR)
04:17AM -34.9800 140.6820 90° East 439 505 39,100  Level Aus ATC (RADAR)
04:18AM -34.9807 140.7692 91° East 440 506 39,100  Level Aus ATC (RADAR)
04:19AM -34.9811 140.9442 90° East 443 510 39,100  Level Aus ATC (RADAR)
04:20AM -34.9821 141.1323 90° East 444 511 39,100  Level Aus ATC (RADAR)
04:21AM -34.9824 141.2827 90° East 446 513 39,100  Level Aus ATC (RADAR)
04:22AM -34.9822 141.3956 90° East 444 511 39,100  Level Aus ATC (RADAR)
04:22AM -34.9829 141.4961 90° East 444 511 39,100  Level Aus ATC (RADAR)
04:23AM -34.9821 141.6096 90° East 445 512 39,100 60 Level Aus ATC (RADAR)
04:24AM -34.9818 141.7361 90° East 447 514 39,200  Climbing Aus ATC (RADAR)
04:25AM -34.9819 141.9254 90° East 445 512 39,200  Level Aus ATC (RADAR)
04:26AM -34.9807 142.0773 90° East 447 514 39,200  Level Aus ATC (RADAR)
04:27AM -34.9795 142.1915 89° East 448 516 39,200  Level Aus ATC (RADAR)
04:28AM -34.9797 142.2799 90° East 448 516 39,200  Level Aus ATC (RADAR)
04:29AM -34.9779 142.4192 89° East 448 516 39,200  Level Aus ATC (RADAR)
04:29AM -34.9777 142.5199 90° East 445 512 39,200  Level Aus ATC (RADAR)
04:30AM -34.9762 142.6834 89° East 443 510 39,200 -60 Level Aus ATC (RADAR)
04:31AM -34.9746 142.8214 89° East 444 511 39,100 -60 Descending Aus ATC (RADAR)
04:32AM -34.9729 142.9341 89° East 442 509 39,100  Level Aus ATC (RADAR)
04:33AM -34.9718 143.0343 89° East 442 509 39,100  Level Aus ATC (RADAR)
04:33AM -34.9700 143.1464 89° East 440 506 39,100  Level Aus ATC (RADAR)
04:34AM -34.9656 143.2958 88° East 438 504 39,100  Level Aus ATC (RADAR)
04:36AM -34.9519 143.4952 85° East 440 506 39,100  Level Aus ATC (RADAR)
04:37AM -34.9410 143.6439 85° East 439 505 39,100  Level Aus ATC (RADAR)
04:37AM -34.9333 143.7554 85° East 438 504 39,100  Level Aus ATC (RADAR)
04:38AM -34.9267 143.8421 85° East 438 504 39,100  Level Aus ATC (RADAR)
04:39AM -34.9175 143.9801 85° East 443 510 39,100 -180 Level Aus ATC (RADAR)
04:40AM -34.9095 144.0798 84° East 442 509 38,900 -120 Descending Aus ATC (RADAR)
04:41AM -34.8925 144.3182 85° East 444 511 38,900  Level Aus ATC (RADAR)
04:42AM -34.8809 144.4686 85° East 444 511 38,900  Level Aus ATC (RADAR)
04:43AM -34.8724 144.5811 85° East 443 510 38,900  Level Aus ATC (RADAR)
04:43AM -34.8653 144.6694 84° East 446 513 38,900  Level Aus ATC (RADAR)
04:44AM -34.8569 144.7825 85° East 446 513 38,900  Level Aus ATC (RADAR)
04:46AM -34.8376 145.0210 84° East 445 512 38,900  Level Aus ATC (RADAR)
04:47AM -34.8252 145.1725 84° East 447 514 38,900  Level Aus ATC (RADAR)
04:48AM -34.8158 145.2865 84° East 448 516 38,900  Level Aus ATC (RADAR)
04:48AM -34.8084 145.3750 84° East 446 513 38,900  Level Aus ATC (RADAR)
04:49AM -34.7970 145.5142 84° East 448 516 38,900  Level Aus ATC (RADAR)
04:50AM -34.7850 145.6146 82° East 449 517 38,900  Level Aus ATC (RADAR)
04:51AM -34.7566 145.7879 79° East 444 511 38,900  Level Aus ATC (RADAR)
04:52AM -34.7326 145.9355 79° East 441 507 38,900  Level Aus ATC (RADAR)
04:53AM -34.7153 146.0454 79° East 437 503 39,000 60 Climbing Aus ATC (RADAR)
04:53AM -34.6991 146.1431 79° East 437 503 39,000  Level Aus ATC (RADAR)
04:54AM -34.6757 146.2895 79° East 437 503 39,000  Level Aus ATC (RADAR)
04:55AM -34.6597 146.3864 79° East 435 501 39,000  Level Aus ATC (RADAR)
04:56AM -34.6236 146.6045 79° East 434 499 39,000  Level Aus ATC (RADAR)
04:57AM -34.5987 146.7512 78° East 439 505 39,000  Level Aus ATC (RADAR)
04:58AM -34.5782 146.8734 79° East 439 505 39,000  Level Aus ATC (RADAR)
04:59AM -34.5621 146.9712 79° East 439 505 39,000  Level Aus ATC (RADAR)
05:00AM -34.5426 147.0802 78° East 435 501 39,000  Level Aus ATC (RADAR)
05:01AM -34.5157 147.2366 78° East 431 496 39,000  Level Aus ATC (RADAR)
05:02AM -34.4952 147.3574 78° East 434 499 39,000  Level Aus ATC (RADAR)
05:02AM -34.4827 147.4291 78° East 432 497 39,000  Level Aus ATC (RADAR)
05:03AM -34.4599 147.5616 78° East 433 498 39,000  Level Aus ATC (RADAR)
05:04AM -34.4361 147.6936 78° East 432 497 39,000  Level Aus ATC (RADAR)
05:05AM -34.4174 147.8019 78° East 432 497 39,000  Level Aus ATC (RADAR)
05:05AM -34.4000 147.8982 78° East 433 498 39,000 -360 Level Aus ATC (RADAR)
05:07AM -34.3641 148.0959 78° East 449 517 38,300 -540 Descending Aus ATC (RADAR)
05:08AM -34.3367 148.2474 78° East 454 522 37,800 -540 Descending Aus ATC (RADAR)
05:08AM -34.3186 148.3501 78° East 460 529 37,400 -540 Descending Aus ATC (RADAR)
05:09AM -34.2991 148.4532 77° East 463 533 37,100 -720 Descending Aus ATC (RADAR)
05:10AM -34.2710 148.6079 78° East 460 529 36,200 -1,260 Descending Aus ATC (RADAR)
05:11AM -34.2406 148.7732 78° East 454 522 34,500 -1,800 Descending Aus ATC (RADAR)
05:12AM -34.2233 148.8631 77° East 459 528 33,200 -1,800 Descending Aus ATC (RADAR)
05:13AM -34.1955 149.0127 77° East 442 509 31,700 -1,680 Descending Aus ATC (RADAR)
05:13AM -34.1752 149.1198 77° East 424 488 30,300 -2,100 Descending Aus ATC (RADAR)
05:14AM -34.1577 149.2135 77° East 416 479 28,800 -2,340 Descending Aus ATC (RADAR)
05:15AM -34.1351 149.3297 77° East 412 474 26,800 -2,520 Descending Aus ATC (RADAR)
05:17AM -34.0917 149.5556 77° East 395 455 22,500 -2,520 Descending Aus ATC (RADAR)
05:18AM -34.0685 149.6745 77° East 381 438 20,300 -2,340 Descending Aus ATC (RADAR)
05:18AM -34.0499 149.7688 77° East 373 429 18,600 -2,280 Descending Aus ATC (RADAR)
05:19AM -34.0342 149.8502 77° East 362 417 17,100 -2,100 Descending Aus ATC (RADAR)
05:20AM -34.0113 149.9680 77° East 345 397 15,100 -1,920 Descending Aus ATC (RADAR)
05:21AM -33.9981 150.0329 76° East 332 382 14,100 -1,860 Descending Aus ATC (RADAR)
05:22AM -33.9756 150.1497 77° East 316 364 12,100 -1,740 Descending Aus ATC (RADAR)
05:23AM -33.9565 150.2428 76° East 302 348 10,700 -1,620 Descending Aus ATC (RADAR)
05:23AM -33.9416 150.3194 77° East 301 346 9,400 -1,560 Descending Aus ATC (RADAR)
05:24AM -33.9282 150.3858 76° East 296 341 8,500 -1,560 Descending Aus ATC (RADAR)
05:25AM -33.9223 150.4766 86° East 287 330 7,000 -1,560 Descending Aus ATC (RADAR)
05:26AM -33.9257 150.5401 94° East 275 316 6,100 -1,260 Descending Aus ATC (RADAR)
05:27AM -33.9298 150.6310 93° East 256 295 4,900 -1,260 Descending Aus ATC (RADAR)
05:28AM -33.9365 150.7145 96° East 240 276 3,600 -1,200 Descending Aus ATC (RADAR)
05:28AM -33.9393 150.7743 93° East 228 262 2,800 -1,140 Descending Aus ATC (RADAR)
05:29AM -33.9396 150.8258 90° East 223 257 2,000 -660 Descending Aus ATC (RADAR)
05:30AM -33.9367 150.8898 87° East 196 226 1,800 -420 Descending Aus ATC (RADAR)
05:31AM -33.9332 150.9314 84° East 183 211 1,400 -420 Descending Aus ATC (RADAR)
05:32AM -33.9457 150.9902 104° East 153 176 1,100 -600 Descending Aus ATC (RADAR)
05:33AM -33.9324 151.0070 46° Northeast 107 123 200 -900 Descending Aus ATC (RADAR)